Weather reports worldwide

Advertisment
Tarancon, Spain (8277): temperature & dewpoint: 08.07.2020 12:00:00 - 14.07.2020 12:00:00 (CEST)Tarancon, Spain (8277): wind speed & gusts: 08.07.2020 12:00:00 - 14.07.2020 12:00:00 (CEST)Tarancon, Spain (8277): wind direction: 08.07.2020 12:00:00 - 14.07.2020 12:00:00 (CEST)Tarancon, Spain (8277): visibility: 08.07.2020 12:00:00 - 14.07.2020 12:00:00 (CEST)Tarancon, Spain (8277): sunshine duration: 08.07.2020 12:00:00 - 14.07.2020 12:00:00 (CEST)Tarancon, Spain (8277): precipitation: 08.07.2020 12:00:00 - 14.07.2020 12:00:00 (CEST)
Date & Time tt [°C] td [°C] ff [km/h] ff [kn] fx [km/h] fx [kn] dd vv [km] sd [min] rr [mm]
14.07.2020 12:00:00 - - - - - - - - - -
14.07.2020 11:00:00 25,1 13,4 9 5 21 12 ESE 12 51 0,0
14.07.2020 10:00:00 23,7 13,3 11 6 24 13 ESE 15 60 0,0
14.07.2020 09:00:00 21,8 13,0 10 5 20 11 E 15 46 0,0
14.07.2020 08:00:00 20,6 12,8 6 4 16 9 NE 13 0 -
14.07.2020 07:00:00 20,9 12,3 6 3 26 14 E 15 0 0,0
14.07.2020 06:00:00 21,3 11,9 11 6 27 15 E 15 0 0,0
14.07.2020 05:00:00 21,6 12,2 18 10 31 17 ESE 15 0 0,0
14.07.2020 04:00:00 22,3 12,5 13 7 33 18 ESE 14 0 0,0
14.07.2020 03:00:00 22,9 13,1 16 9 30 16 ESE 15 0 0,0
14.07.2020 02:00:00 24,1 13,4 17 9 32 17 SE 14 0 -
14.07.2020 01:00:00 26,1 13,3 17 9 36 20 ESE 14 0 0,0
14.07.2020 00:00:00 26,9 8,8 8 5 16 9 NE 13 0 0,0
13.07.2020 23:00:00 28,5 8,8 4 2 10 5 SE 14 0 0,0
13.07.2020 22:00:00 30,3 9,2 5 3 17 9 E 14 0 0,0
13.07.2020 21:00:00 31,6 8,5 8 4 18 10 E 14 0 0,0
13.07.2020 20:00:00 31,4 9,0 9 5 25 14 NNW 13 0 -
13.07.2020 19:00:00 33,6 8,3 6 3 22 12 WSW 13 2 0,0
13.07.2020 18:00:00 34,0 8,5 5 3 20 11 S 13 28 0,0
13.07.2020 17:00:00 32,8 9,6 7 4 20 11 SE 13 44 0,0
13.07.2020 16:00:00 33,8 10,4 9 5 24 13 SSE 14 60 0,0
13.07.2020 15:00:00 32,1 10,8 8 5 21 11 ESE 12 52 0,0
13.07.2020 14:00:00 30,2 11,7 7 4 22 12 ESE 5 60 -
13.07.2020 13:00:00 28,8 11,3 10 5 29 16 SE 13 56 0,0
13.07.2020 12:00:00 27,0 11,4 10 5 19 10 ESE 13 60 0,0
13.07.2020 11:00:00 25,3 11,4 8 4 21 12 SE 16 56 0,0
13.07.2020 10:00:00 23,1 11,8 11 6 22 12 E 14 60 0,0
13.07.2020 09:00:00 20,9 12,8 7 4 20 11 E 14 45 0,0
13.07.2020 08:00:00 19,5 12,7 8 5 18 10 E 13 0 -
13.07.2020 07:00:00 19,0 13,2 5 3 21 11 NNE 14 0 0,0
13.07.2020 06:00:00 19,8 13,8 8 5 21 12 E 14 0 0,0
13.07.2020 05:00:00 20,1 14,0 10 5 25 14 E 15 0 0,0
13.07.2020 04:00:00 20,5 14,1 12 7 23 13 E 15 0 0,0
13.07.2020 03:00:00 20,8 14,2 9 5 21 12 E 14 0 0,0
13.07.2020 02:00:00 21,3 13,9 8 4 24 13 E 14 0 -
13.07.2020 01:00:00 22,0 13,7 13 7 27 15 ESE 14 0 0,0
13.07.2020 00:00:00 22,6 12,8 11 6 22 12 E 14 0 0,0
12.07.2020 23:00:00 23,2 11,9 12 6 26 14 E 14 0 0,0
12.07.2020 22:00:00 23,6 13,5 12 7 31 17 SE 14 0 0,0
12.07.2020 21:00:00 25,2 13,8 17 9 37 20 E 14 0 0,0
12.07.2020 20:00:00 25,8 14,2 18 10 46 25 ESE 13 0 -
12.07.2020 19:00:00 26,2 12,6 20 11 49 26 SE 14 0 0,0
12.07.2020 18:00:00 26,5 13,0 29 15 61 33 SE 15 11 0,0
12.07.2020 17:00:00 30,8 10,2 28 15 54 29 SSE 12 42 0,0
12.07.2020 16:00:00 31,3 9,6 15 8 46 25 SE 13 27 0,0
12.07.2020 15:00:00 32,0 11,2 22 12 50 27 SE 15 50 0,0
12.07.2020 14:00:00 32,8 8,3 11 6 31 17 SSE 16 51 -
12.07.2020 13:00:00 30,2 9,7 10 5 26 14 SSE 15 47 0,0
12.07.2020 12:00:00 28,6 10,8 12 7 30 16 SSE 13 59 0,0
12.07.2020 11:00:00 25,4 13,3 15 8 35 19 SE 17 60 0,0
12.07.2020 10:00:00 22,6 12,8 18 10 34 18 SE 12 25 0,0
12.07.2020 09:00:00 21,1 14,0 15 8 36 19 SE 13 14 0,0
12.07.2020 08:00:00 20,6 13,6 15 8 43 23 SE 14 0 -
12.07.2020 07:00:00 20,5 13,5 23 13 51 27 SE 14 0 0,0
12.07.2020 06:00:00 20,9 14,0 26 14 53 29 SE 14 0 0,0
12.07.2020 05:00:00 21,2 13,9 27 15 55 30 SE 14 0 0,0
12.07.2020 04:00:00 21,6 13,8 27 15 53 29 SE 14 0 0,0
12.07.2020 03:00:00 22,1 13,9 22 12 44 24 SE 14 0 0,0
12.07.2020 02:00:00 22,8 14,6 22 12 48 26 SE 14 0 -
12.07.2020 01:00:00 23,8 14,8 23 12 44 24 SE 13 0 0,0
12.07.2020 00:00:00 25,1 14,2 22 12 41 22 SE 14 0 0,0
11.07.2020 23:00:00 26,9 13,0 20 11 40 22 SE 14 0 0,0
11.07.2020 22:00:00 28,6 11,7 19 10 40 21 SE 15 0 0,0
11.07.2020 21:00:00 30,9 9,7 22 12 40 21 ESE 15 0 0,0
11.07.2020 20:00:00 32,8 8,9 18 10 42 23 ESE 16 0 -
11.07.2020 19:00:00 34,5 8,3 18 10 37 20 ESE 13 7 0,0
11.07.2020 18:00:00 36,2 8,1 12 7 39 21 SE 15 42 0,0
11.07.2020 17:00:00 35,3 6,5 13 7 38 20 SE 14 37 0,0
11.07.2020 16:00:00 34,6 5,9 18 10 38 21 SSE 14 56 0,0
11.07.2020 15:00:00 34,8 6,1 12 7 30 16 SE 20 60 0,0
11.07.2020 14:00:00 33,3 5,8 14 8 35 19 SSE 15 60 -
11.07.2020 13:00:00 31,7 5,3 16 8 34 18 SSE 14 56 0,0
11.07.2020 12:00:00 30,2 6,1 15 8 31 17 SE 15 60 0,0
11.07.2020 11:00:00 27,5 6,2 18 10 34 19 SE 13 40 0,0
11.07.2020 10:00:00 25,2 5,5 15 8 29 16 ESE 15 60 0,0
11.07.2020 09:00:00 22,7 6,4 11 6 21 12 ENE 15 45 0,0
11.07.2020 08:00:00 22,0 6,7 4 2 29 16 ENE 15 0 -
11.07.2020 07:00:00 21,4 7,3 14 8 27 15 ESE 17 0 0,0
11.07.2020 06:00:00 21,4 8,3 16 9 33 18 SE 15 0 0,0
11.07.2020 05:00:00 21,4 8,9 15 8 26 14 SE 16 0 0,0
11.07.2020 04:00:00 21,7 8,9 13 7 28 15 SE 15 0 0,0
11.07.2020 03:00:00 22,7 8,8 16 9 30 16 SE 15 0 0,0
11.07.2020 02:00:00 23,2 9,6 15 8 32 18 SE 15 0 -
11.07.2020 01:00:00 23,9 10,2 16 9 35 19 SE 15 0 0,0
11.07.2020 00:00:00 26,6 9,0 16 9 28 15 ESE 14 0 0,0
10.07.2020 23:00:00 28,2 7,4 4 2 10 5 E 15 0 0,0
10.07.2020 22:00:00 29,1 7,7 5 3 11 6 ENE 15 0 0,0
10.07.2020 21:00:00 30,3 6,2 4 2 16 9 NE 15 0 0,0
10.07.2020 20:00:00 30,6 7,1 4 2 16 9 NW 14 0 -
10.07.2020 19:00:00 31,3 7,7 7 4 18 10 NE 13 0 0,0
10.07.2020 18:00:00 31,9 6,8 8 4 21 11 ESE 14 8 0,0
10.07.2020 17:00:00 33,2 6,4 8 4 21 12 S 16 52 0,0
10.07.2020 16:00:00 32,3 6,5 7 4 20 11 WSW 15 60 0,0
10.07.2020 15:00:00 31,3 7,0 8 4 21 12 S 20 60 0,0
10.07.2020 14:00:00 28,9 8,0 8 5 19 10 ENE 15 60 -
10.07.2020 13:00:00 27,9 9,7 9 5 22 12 ESE 13 56 0,0
10.07.2020 12:00:00 26,3 9,2 8 5 24 13 E 13 60 0,0
10.07.2020 11:00:00 24,2 11,6 12 6 24 13 ESE 18 60 0,0
10.07.2020 10:00:00 21,7 12,2 9 5 18 10 E 14 59 0,0
10.07.2020 09:00:00 19,7 11,4 7 4 16 9 NE 16 33 0,0
10.07.2020 08:00:00 18,8 10,6 4 2 11 6 ENE 14 0 -
10.07.2020 07:00:00 18,4 11,0 5 3 11 6 NE 14 0 0,0
10.07.2020 06:00:00 18,4 11,0 4 2 11 6 ENE 15 0 0,0
10.07.2020 05:00:00 18,9 11,2 6 4 11 6 E 16 0 0,0
10.07.2020 04:00:00 19,2 11,0 7 4 16 9 E 17 0 0,0
10.07.2020 03:00:00 18,8 11,9 5 3 10 6 E 17 0 0,2
10.07.2020 02:00:00 17,8 12,8 4 2 14 7 NW 17 0 -
10.07.2020 01:00:00 18,5 12,0 8 5 22 12 NNE 17 0 0,0
10.07.2020 00:00:00 19,3 10,9 10 5 27 14 ESE 18 0 0,0
09.07.2020 23:00:00 18,5 11,8 10 5 25 13 E 20 0 0,0
09.07.2020 22:00:00 17,7 13,3 16 9 41 22 N 20 0 0,0
09.07.2020 21:00:00 18,3 12,3 22 12 35 19 NNE 17 0 2,4
09.07.2020 20:00:00 21,4 11,4 16 9 48 26 E 8 0 -
09.07.2020 19:00:00 27,0 6,4 22 12 60 33 E 13 0 0,0
09.07.2020 18:00:00 28,9 6,8 9 5 36 20 NE 14 27 0,0
09.07.2020 17:00:00 34,5 5,9 10 6 35 19 ESE 13 45 0,0
09.07.2020 16:00:00 33,2 8,7 15 8 30 16 ESE 10 49 0,0
09.07.2020 15:00:00 28,8 9,6 5 3 14 8 S 13 2 0,0
09.07.2020 14:00:00 28,0 13,6 11 6 29 16 SSE 16 20 -
09.07.2020 13:00:00 30,0 6,5 8 4 24 13 SSW 12 55 0,0
09.07.2020 12:00:00 27,7 8,0 9 5 25 14 S 13 58 0,0
09.07.2020 11:00:00 25,8 9,6 14 7 27 14 SSE 13 58 0,0
09.07.2020 10:00:00 23,7 12,6 13 7 30 16 SSE 13 44 0,0
09.07.2020 09:00:00 21,9 13,0 14 8 31 17 SSE 15 43 0,0
09.07.2020 08:00:00 20,5 13,9 14 8 37 20 SE 13 0 -
09.07.2020 07:00:00 20,3 14,4 20 11 37 20 SE 14 0 0,0
09.07.2020 06:00:00 20,4 14,7 20 11 32 18 SE 12 0 0,0
09.07.2020 05:00:00 21,1 14,7 16 9 35 19 SSE 14 0 0,0
09.07.2020 04:00:00 21,9 14,3 21 11 36 20 SE 13 0 0,0
09.07.2020 03:00:00 22,2 13,6 18 10 40 21 SSE 13 0 0,0
09.07.2020 02:00:00 22,4 12,1 19 10 39 21 SSE 14 0 -
09.07.2020 01:00:00 23,3 9,7 17 9 34 18 SSE 12 0 0,0
09.07.2020 00:00:00 24,9 7,6 15 8 41 22 SE 12 0 0,0
08.07.2020 23:00:00 26,1 6,7 18 10 39 21 ESE 14 0 0,0
08.07.2020 22:00:00 - - - - - - - - - -
08.07.2020 21:00:00 - - - - - - - - - -
08.07.2020 20:00:00 - - - - - - - - - -
08.07.2020 19:00:00 - - - - - - - - - -
08.07.2020 18:00:00 - - - - - - - - - -
08.07.2020 17:00:00 - - - - - - - - - -
08.07.2020 16:00:00 35,1 7,3 25 14 50 27 SE 11 31 0,0
08.07.2020 15:00:00 35,1 3,6 24 13 43 23 ESE 11 29 0,0
08.07.2020 14:00:00 34,4 2,1 14 7 36 19 S 11 37 -
08.07.2020 13:00:00 33,3 6,5 13 7 39 21 E 12 60 0,0
08.07.2020 12:00:00 30,6 8,9 16 9 40 21 E 11 55 0,0

tt = temperature
td = dewpoint
ff = wind speed
fx = gusts
dd = wind direction
vv = visibility
sd = sunshine duration
rr = precipitation

Next stations